sensor_id;sensor_type;location;lat;lon;timestamp;P1;durP1;ratioP1;P2;durP2;ratioP2
25707;SDS011;13567;61.652;17.100;2022-08-21T00:00:13;141.90;;;36.08;;
25707;SDS011;13567;61.652;17.100;2022-08-21T00:02:50;98.22;;;30.30;;
25707;SDS011;13567;61.652;17.100;2022-08-21T00:05:21;42.28;;;26.83;;
25707;SDS011;13567;61.652;17.100;2022-08-21T00:07:49;37.42;;;26.45;;
25707;SDS011;13567;61.652;17.100;2022-08-21T00:10:17;60.78;;;27.95;;
25707;SDS011;13567;61.652;17.100;2022-08-21T00:12:45;27.45;;;19.08;;
25707;SDS011;13567;61.652;17.100;2022-08-21T00:15:15;26.13;;;18.85;;
25707;SDS011;13567;61.652;17.100;2022-08-21T00:17:45;22.48;;;16.33;;
25707;SDS011;13567;61.652;17.100;2022-08-21T00:20:13;27.65;;;20.27;;
25707;SDS011;13567;61.652;17.100;2022-08-21T00:22:43;21.08;;;15.30;;
25707;SDS011;13567;61.652;17.100;2022-08-21T00:25:11;23.58;;;14.55;;
25707;SDS011;13567;61.652;17.100;2022-08-21T00:27:41;21.05;;;14.18;;
25707;SDS011;13567;61.652;17.100;2022-08-21T00:30:10;20.48;;;14.02;;
25707;SDS011;13567;61.652;17.100;2022-08-21T00:32:48;18.92;;;12.85;;
25707;SDS011;13567;61.652;17.100;2022-08-21T00:35:17;21.88;;;14.43;;
25707;SDS011;13567;61.652;17.100;2022-08-21T00:37:45;19.58;;;13.15;;
25707;SDS011;13567;61.652;17.100;2022-08-21T00:40:13;18.67;;;12.23;;
25707;SDS011;13567;61.652;17.100;2022-08-21T00:42:43;18.70;;;13.15;;
25707;SDS011;13567;61.652;17.100;2022-08-21T00:45:19;17.90;;;11.60;;
25707;SDS011;13567;61.652;17.100;2022-08-21T00:47:48;17.98;;;11.38;;
25707;SDS011;13567;61.652;17.100;2022-08-21T00:50:16;18.42;;;11.27;;
25707;SDS011;13567;61.652;17.100;2022-08-21T00:52:47;18.92;;;11.40;;
25707;SDS011;13567;61.652;17.100;2022-08-21T00:55:18;18.40;;;10.88;;
25707;SDS011;13567;61.652;17.100;2022-08-21T00:57:50;16.30;;;9.65;;
25707;SDS011;13567;61.652;17.100;2022-08-21T01:00:22;17.52;;;10.48;;
25707;SDS011;13567;61.652;17.100;2022-08-21T01:02:56;14.68;;;8.07;;
25707;SDS011;13567;61.652;17.100;2022-08-21T01:05:26;16.25;;;9.75;;
25707;SDS011;13567;61.652;17.100;2022-08-21T01:07:54;15.27;;;9.20;;
25707;SDS011;13567;61.652;17.100;2022-08-21T01:10:23;16.70;;;11.10;;
25707;SDS011;13567;61.652;17.100;2022-08-21T01:12:51;19.08;;;11.35;;
25707;SDS011;13567;61.652;17.100;2022-08-21T01:15:21;19.08;;;12.27;;
25707;SDS011;13567;61.652;17.100;2022-08-21T01:17:50;17.85;;;11.02;;
25707;SDS011;13567;61.652;17.100;2022-08-21T01:20:18;16.95;;;10.32;;
25707;SDS011;13567;61.652;17.100;2022-08-21T01:22:45;17.15;;;10.77;;
25707;SDS011;13567;61.652;17.100;2022-08-21T01:25:18;17.98;;;10.35;;
25707;SDS011;13567;61.652;17.100;2022-08-21T01:27:48;18.13;;;9.98;;
25707;SDS011;13567;61.652;17.100;2022-08-21T01:30:20;16.30;;;9.27;;
25707;SDS011;13567;61.652;17.100;2022-08-21T01:32:50;16.80;;;10.05;;
25707;SDS011;13567;61.652;17.100;2022-08-21T01:35:19;16.30;;;9.40;;
25707;SDS011;13567;61.652;17.100;2022-08-21T01:37:47;18.13;;;10.02;;
25707;SDS011;13567;61.652;17.100;2022-08-21T01:40:15;17.95;;;9.48;;
25707;SDS011;13567;61.652;17.100;2022-08-21T01:42:44;17.17;;;8.65;;
25707;SDS011;13567;61.652;17.100;2022-08-21T01:45:13;18.17;;;9.18;;
25707;SDS011;13567;61.652;17.100;2022-08-21T01:47:41;16.55;;;10.00;;
25707;SDS011;13567;61.652;17.100;2022-08-21T01:50:10;19.30;;;9.70;;
25707;SDS011;13567;61.652;17.100;2022-08-21T01:52:39;17.73;;;10.23;;
25707;SDS011;13567;61.652;17.100;2022-08-21T01:55:07;18.10;;;10.05;;
25707;SDS011;13567;61.652;17.100;2022-08-21T01:57:35;21.25;;;10.63;;
25707;SDS011;13567;61.652;17.100;2022-08-21T02:00:04;18.48;;;9.15;;
25707;SDS011;13567;61.652;17.100;2022-08-21T02:02:34;19.13;;;8.70;;
25707;SDS011;13567;61.652;17.100;2022-08-21T02:05:01;17.25;;;10.25;;
25707;SDS011;13567;61.652;17.100;2022-08-21T02:07:36;16.70;;;8.70;;
25707;SDS011;13567;61.652;17.100;2022-08-21T02:10:05;17.75;;;9.23;;
25707;SDS011;13567;61.652;17.100;2022-08-21T02:12:34;17.55;;;10.02;;
25707;SDS011;13567;61.652;17.100;2022-08-21T02:15:02;18.52;;;10.00;;
25707;SDS011;13567;61.652;17.100;2022-08-21T02:17:40;18.50;;;9.60;;
25707;SDS011;13567;61.652;17.100;2022-08-21T02:20:11;17.48;;;11.23;;
25707;SDS011;13567;61.652;17.100;2022-08-21T02:22:43;18.85;;;11.32;;
25707;SDS011;13567;61.652;17.100;2022-08-21T02:25:10;18.85;;;12.50;;
25707;SDS011;13567;61.652;17.100;2022-08-21T02:27:39;20.30;;;10.63;;
25707;SDS011;13567;61.652;17.100;2022-08-21T02:30:07;19.42;;;11.32;;
25707;SDS011;13567;61.652;17.100;2022-08-21T02:32:39;17.73;;;11.15;;
25707;SDS011;13567;61.652;17.100;2022-08-21T02:35:06;17.33;;;9.82;;
25707;SDS011;13567;61.652;17.100;2022-08-21T02:37:42;15.40;;;9.25;;
25707;SDS011;13567;61.652;17.100;2022-08-21T02:40:15;14.55;;;9.02;;
25707;SDS011;13567;61.652;17.100;2022-08-21T02:42:43;16.45;;;9.02;;
25707;SDS011;13567;61.652;17.100;2022-08-21T02:45:11;18.52;;;10.63;;
25707;SDS011;13567;61.652;17.100;2022-08-21T02:47:39;18.73;;;10.00;;
25707;SDS011;13567;61.652;17.100;2022-08-21T02:50:06;18.50;;;11.18;;
25707;SDS011;13567;61.652;17.100;2022-08-21T02:52:34;16.02;;;9.60;;
25707;SDS011;13567;61.652;17.100;2022-08-21T02:55:01;17.55;;;10.13;;
25707;SDS011;13567;61.652;17.100;2022-08-21T02:57:28;29.65;;;10.55;;
25707;SDS011;13567;61.652;17.100;2022-08-21T02:59:58;15.35;;;9.13;;
25707;SDS011;13567;61.652;17.100;2022-08-21T03:02:25;16.73;;;8.65;;
25707;SDS011;13567;61.652;17.100;2022-08-21T03:04:52;16.27;;;8.30;;
25707;SDS011;13567;61.652;17.100;2022-08-21T03:07:18;18.27;;;8.10;;
25707;SDS011;13567;61.652;17.100;2022-08-21T03:09:45;16.73;;;8.27;;
25707;SDS011;13567;61.652;17.100;2022-08-21T03:12:21;15.50;;;7.47;;
25707;SDS011;13567;61.652;17.100;2022-08-21T03:14:48;14.60;;;7.95;;
25707;SDS011;13567;61.652;17.100;2022-08-21T03:17:15;16.10;;;8.00;;
25707;SDS011;13567;61.652;17.100;2022-08-21T03:19:42;16.23;;;8.02;;
25707;SDS011;13567;61.652;17.100;2022-08-21T03:22:09;16.17;;;7.80;;
25707;SDS011;13567;61.652;17.100;2022-08-21T03:24:36;13.65;;;6.88;;
25707;SDS011;13567;61.652;17.100;2022-08-21T03:27:08;15.07;;;6.85;;
25707;SDS011;13567;61.652;17.100;2022-08-21T03:29:35;16.10;;;7.35;;
25707;SDS011;13567;61.652;17.100;2022-08-21T03:32:02;14.27;;;7.18;;
25707;SDS011;13567;61.652;17.100;2022-08-21T03:34:29;14.98;;;7.35;;
25707;SDS011;13567;61.652;17.100;2022-08-21T03:36:56;16.08;;;7.63;;
25707;SDS011;13567;61.652;17.100;2022-08-21T03:39:23;14.82;;;7.20;;
25707;SDS011;13567;61.652;17.100;2022-08-21T03:41:50;15.48;;;6.82;;
25707;SDS011;13567;61.652;17.100;2022-08-21T03:44:18;15.35;;;6.47;;
25707;SDS011;13567;61.652;17.100;2022-08-21T03:46:45;16.88;;;7.28;;
25707;SDS011;13567;61.652;17.100;2022-08-21T03:49:12;13.95;;;7.13;;
25707;SDS011;13567;61.652;17.100;2022-08-21T03:51:39;15.60;;;6.13;;
25707;SDS011;13567;61.652;17.100;2022-08-21T03:54:06;14.48;;;5.82;;
25707;SDS011;13567;61.652;17.100;2022-08-21T03:56:33;13.52;;;5.72;;
25707;SDS011;13567;61.652;17.100;2022-08-21T03:59:00;14.98;;;6.45;;
25707;SDS011;13567;61.652;17.100;2022-08-21T04:01:29;12.70;;;6.03;;
25707;SDS011;13567;61.652;17.100;2022-08-21T04:03:56;15.20;;;5.25;;
25707;SDS011;13567;61.652;17.100;2022-08-21T04:06:23;13.80;;;6.78;;
25707;SDS011;13567;61.652;17.100;2022-08-21T04:08:53;13.43;;;5.10;;
25707;SDS011;13567;61.652;17.100;2022-08-21T04:11:20;12.77;;;4.30;;
25707;SDS011;13567;61.652;17.100;2022-08-21T04:13:47;13.27;;;5.28;;
25707;SDS011;13567;61.652;17.100;2022-08-21T04:16:15;12.52;;;5.38;;
25707;SDS011;13567;61.652;17.100;2022-08-21T04:18:42;11.60;;;4.30;;
25707;SDS011;13567;61.652;17.100;2022-08-21T04:21:10;12.35;;;4.65;;
25707;SDS011;13567;61.652;17.100;2022-08-21T04:23:38;11.93;;;5.07;;
25707;SDS011;13567;61.652;17.100;2022-08-21T04:26:05;10.10;;;4.45;;
25707;SDS011;13567;61.652;17.100;2022-08-21T04:28:32;14.30;;;4.72;;
25707;SDS011;13567;61.652;17.100;2022-08-21T04:31:00;14.13;;;5.43;;
25707;SDS011;13567;61.652;17.100;2022-08-21T04:33:27;13.05;;;5.03;;
25707;SDS011;13567;61.652;17.100;2022-08-21T04:35:54;11.90;;;3.97;;
25707;SDS011;13567;61.652;17.100;2022-08-21T04:38:21;14.15;;;4.43;;
25707;SDS011;13567;61.652;17.100;2022-08-21T04:40:49;14.10;;;5.07;;
25707;SDS011;13567;61.652;17.100;2022-08-21T04:43:16;14.13;;;5.05;;
25707;SDS011;13567;61.652;17.100;2022-08-21T04:45:45;12.27;;;5.13;;
25707;SDS011;13567;61.652;17.100;2022-08-21T04:48:14;9.60;;;3.70;;
25707;SDS011;13567;61.652;17.100;2022-08-21T04:50:48;13.70;;;3.30;;
25707;SDS011;13567;61.652;17.100;2022-08-21T04:53:20;8.70;;;3.33;;
25707;SDS011;13567;61.652;17.100;2022-08-21T04:55:52;9.63;;;3.13;;
25707;SDS011;13567;61.652;17.100;2022-08-21T04:58:21;13.82;;;4.13;;
25707;SDS011;13567;61.652;17.100;2022-08-21T05:00:54;10.85;;;3.00;;
25707;SDS011;13567;61.652;17.100;2022-08-21T05:03:24;10.65;;;3.20;;
25707;SDS011;13567;61.652;17.100;2022-08-21T05:05:51;8.63;;;3.28;;
25707;SDS011;13567;61.652;17.100;2022-08-21T05:08:19;12.05;;;3.53;;
25707;SDS011;13567;61.652;17.100;2022-08-21T05:10:49;11.13;;;3.22;;
25707;SDS011;13567;61.652;17.100;2022-08-21T05:13:16;10.98;;;3.03;;
25707;SDS011;13567;61.652;17.100;2022-08-21T05:15:44;9.82;;;3.10;;
25707;SDS011;13567;61.652;17.100;2022-08-21T05:18:11;10.80;;;3.42;;
25707;SDS011;13567;61.652;17.100;2022-08-21T05:20:38;9.68;;;3.28;;
25707;SDS011;13567;61.652;17.100;2022-08-21T05:23:06;11.75;;;2.80;;
25707;SDS011;13567;61.652;17.100;2022-08-21T05:25:35;10.27;;;3.15;;
25707;SDS011;13567;61.652;17.100;2022-08-21T05:28:02;10.07;;;3.13;;
25707;SDS011;13567;61.652;17.100;2022-08-21T05:30:29;9.43;;;3.40;;
25707;SDS011;13567;61.652;17.100;2022-08-21T05:32:57;7.20;;;3.03;;
25707;SDS011;13567;61.652;17.100;2022-08-21T05:35:26;6.60;;;2.47;;
25707;SDS011;13567;61.652;17.100;2022-08-21T05:37:54;8.57;;;2.92;;
25707;SDS011;13567;61.652;17.100;2022-08-21T05:40:22;13.68;;;3.03;;
25707;SDS011;13567;61.652;17.100;2022-08-21T05:42:50;10.57;;;2.63;;
25707;SDS011;13567;61.652;17.100;2022-08-21T05:45:22;11.40;;;3.55;;
25707;SDS011;13567;61.652;17.100;2022-08-21T05:48:10;8.65;;;2.53;;
25707;SDS011;13567;61.652;17.100;2022-08-21T05:50:51;14.70;;;4.07;;
25707;SDS011;13567;61.652;17.100;2022-08-21T05:53:19;9.85;;;2.67;;
25707;SDS011;13567;61.652;17.100;2022-08-21T05:55:47;11.48;;;3.10;;
25707;SDS011;13567;61.652;17.100;2022-08-21T05:58:15;8.07;;;2.72;;
25707;SDS011;13567;61.652;17.100;2022-08-21T06:00:44;12.73;;;3.45;;
25707;SDS011;13567;61.652;17.100;2022-08-21T06:03:15;9.85;;;3.53;;
25707;SDS011;13567;61.652;17.100;2022-08-21T06:05:44;14.25;;;3.88;;
25707;SDS011;13567;61.652;17.100;2022-08-21T06:08:12;10.40;;;3.80;;
25707;SDS011;13567;61.652;17.100;2022-08-21T06:10:40;12.13;;;3.58;;
25707;SDS011;13567;61.652;17.100;2022-08-21T06:13:07;11.38;;;3.35;;
25707;SDS011;13567;61.652;17.100;2022-08-21T06:15:34;12.85;;;3.17;;
25707;SDS011;13567;61.652;17.100;2022-08-21T06:18:01;11.63;;;2.83;;
25707;SDS011;13567;61.652;17.100;2022-08-21T06:20:28;11.55;;;2.88;;
25707;SDS011;13567;61.652;17.100;2022-08-21T06:22:55;9.75;;;3.08;;
25707;SDS011;13567;61.652;17.100;2022-08-21T06:25:23;11.52;;;2.90;;
25707;SDS011;13567;61.652;17.100;2022-08-21T06:27:50;12.85;;;2.60;;
25707;SDS011;13567;61.652;17.100;2022-08-21T06:30:18;7.53;;;2.28;;
25707;SDS011;13567;61.652;17.100;2022-08-21T06:32:45;8.95;;;2.42;;
25707;SDS011;13567;61.652;17.100;2022-08-21T06:35:12;10.48;;;2.38;;
25707;SDS011;13567;61.652;17.100;2022-08-21T06:37:39;9.23;;;2.78;;
25707;SDS011;13567;61.652;17.100;2022-08-21T06:40:06;12.27;;;2.63;;
25707;SDS011;13567;61.652;17.100;2022-08-21T06:42:38;11.00;;;2.30;;
25707;SDS011;13567;61.652;17.100;2022-08-21T06:45:08;10.45;;;2.45;;
25707;SDS011;13567;61.652;17.100;2022-08-21T06:47:36;8.82;;;2.20;;
25707;SDS011;13567;61.652;17.100;2022-08-21T06:50:04;6.78;;;1.95;;
25707;SDS011;13567;61.652;17.100;2022-08-21T06:52:34;11.65;;;2.47;;
25707;SDS011;13567;61.652;17.100;2022-08-21T06:55:04;12.35;;;3.00;;
25707;SDS011;13567;61.652;17.100;2022-08-21T06:57:32;6.18;;;2.08;;
25707;SDS011;13567;61.652;17.100;2022-08-21T07:00:00;8.20;;;2.17;;
25707;SDS011;13567;61.652;17.100;2022-08-21T07:02:27;10.40;;;2.22;;
25707;SDS011;13567;61.652;17.100;2022-08-21T07:04:54;9.07;;;2.10;;
25707;SDS011;13567;61.652;17.100;2022-08-21T07:07:21;10.27;;;2.67;;
25707;SDS011;13567;61.652;17.100;2022-08-21T07:09:48;9.52;;;2.25;;
25707;SDS011;13567;61.652;17.100;2022-08-21T07:12:15;7.75;;;2.17;;
25707;SDS011;13567;61.652;17.100;2022-08-21T07:14:43;10.55;;;2.13;;
25707;SDS011;13567;61.652;17.100;2022-08-21T07:17:10;11.00;;;2.20;;
25707;SDS011;13567;61.652;17.100;2022-08-21T07:19:37;10.10;;;2.22;;
25707;SDS011;13567;61.652;17.100;2022-08-21T07:22:03;10.60;;;2.50;;
25707;SDS011;13567;61.652;17.100;2022-08-21T07:24:31;10.93;;;2.05;;
25707;SDS011;13567;61.652;17.100;2022-08-21T07:26:58;7.47;;;2.03;;
25707;SDS011;13567;61.652;17.100;2022-08-21T07:29:24;13.40;;;2.38;;
25707;SDS011;13567;61.652;17.100;2022-08-21T07:31:52;10.70;;;2.17;;
25707;SDS011;13567;61.652;17.100;2022-08-21T07:34:19;12.10;;;2.28;;
25707;SDS011;13567;61.652;17.100;2022-08-21T07:36:46;14.27;;;2.72;;
25707;SDS011;13567;61.652;17.100;2022-08-21T07:39:14;10.45;;;1.92;;
25707;SDS011;13567;61.652;17.100;2022-08-21T07:41:41;9.05;;;2.45;;
25707;SDS011;13567;61.652;17.100;2022-08-21T07:44:08;8.98;;;2.10;;
25707;SDS011;13567;61.652;17.100;2022-08-21T07:46:37;8.82;;;2.28;;
25707;SDS011;13567;61.652;17.100;2022-08-21T07:49:04;7.32;;;1.85;;
25707;SDS011;13567;61.652;17.100;2022-08-21T07:51:32;7.07;;;2.03;;
25707;SDS011;13567;61.652;17.100;2022-08-21T07:54:00;7.13;;;2.08;;
25707;SDS011;13567;61.652;17.100;2022-08-21T07:56:28;9.63;;;2.72;;
25707;SDS011;13567;61.652;17.100;2022-08-21T07:58:57;5.85;;;1.85;;
25707;SDS011;13567;61.652;17.100;2022-08-21T08:01:24;11.02;;;2.03;;
25707;SDS011;13567;61.652;17.100;2022-08-21T08:03:51;10.90;;;2.40;;
25707;SDS011;13567;61.652;17.100;2022-08-21T08:06:18;9.35;;;2.10;;
25707;SDS011;13567;61.652;17.100;2022-08-21T08:08:46;13.43;;;2.60;;
25707;SDS011;13567;61.652;17.100;2022-08-21T08:11:13;12.90;;;2.65;;
25707;SDS011;13567;61.652;17.100;2022-08-21T08:13:42;10.63;;;1.98;;
25707;SDS011;13567;61.652;17.100;2022-08-21T08:16:14;14.18;;;2.15;;
25707;SDS011;13567;61.652;17.100;2022-08-21T08:18:41;8.20;;;2.28;;
25707;SDS011;13567;61.652;17.100;2022-08-21T08:21:09;9.82;;;2.30;;
25707;SDS011;13567;61.652;17.100;2022-08-21T08:23:36;10.95;;;2.33;;
25707;SDS011;13567;61.652;17.100;2022-08-21T08:26:03;10.10;;;2.30;;
25707;SDS011;13567;61.652;17.100;2022-08-21T08:28:32;9.95;;;2.05;;
25707;SDS011;13567;61.652;17.100;2022-08-21T08:31:00;11.32;;;2.30;;
25707;SDS011;13567;61.652;17.100;2022-08-21T08:33:27;11.00;;;2.35;;
25707;SDS011;13567;61.652;17.100;2022-08-21T08:35:54;8.63;;;2.17;;
25707;SDS011;13567;61.652;17.100;2022-08-21T08:38:22;9.27;;;2.10;;
25707;SDS011;13567;61.652;17.100;2022-08-21T08:43:30;14.13;;;2.17;;
25707;SDS011;13567;61.652;17.100;2022-08-21T08:46:01;9.90;;;2.03;;
25707;SDS011;13567;61.652;17.100;2022-08-21T08:51:46;7.80;;;2.10;;
25707;SDS011;13567;61.652;17.100;2022-08-21T08:54:32;8.70;;;2.03;;
25707;SDS011;13567;61.652;17.100;2022-08-21T08:57:07;13.77;;;2.20;;
25707;SDS011;13567;61.652;17.100;2022-08-21T08:59:41;9.13;;;1.80;;
25707;SDS011;13567;61.652;17.100;2022-08-21T09:02:19;13.38;;;2.63;;
25707;SDS011;13567;61.652;17.100;2022-08-21T09:04:47;7.85;;;2.00;;
25707;SDS011;13567;61.652;17.100;2022-08-21T09:07:20;8.70;;;2.42;;
25707;SDS011;13567;61.652;17.100;2022-08-21T09:13:03;7.88;;;2.28;;
25707;SDS011;13567;61.652;17.100;2022-08-21T09:20:54;9.93;;;2.28;;
25707;SDS011;13567;61.652;17.100;2022-08-21T09:24:07;8.93;;;1.90;;
25707;SDS011;13567;61.652;17.100;2022-08-21T09:29:36;8.75;;;2.03;;
25707;SDS011;13567;61.652;17.100;2022-08-21T09:32:09;9.60;;;2.03;;
25707;SDS011;13567;61.652;17.100;2022-08-21T09:34:54;13.70;;;1.90;;
25707;SDS011;13567;61.652;17.100;2022-08-21T09:37:24;7.88;;;2.33;;
25707;SDS011;13567;61.652;17.100;2022-08-21T09:39:52;10.52;;;2.10;;
25707;SDS011;13567;61.652;17.100;2022-08-21T09:42:26;11.35;;;2.00;;
25707;SDS011;13567;61.652;17.100;2022-08-21T09:45:16;11.63;;;2.10;;
25707;SDS011;13567;61.652;17.100;2022-08-21T09:47:44;10.30;;;2.20;;
25707;SDS011;13567;61.652;17.100;2022-08-21T09:50:18;9.88;;;2.17;;
25707;SDS011;13567;61.652;17.100;2022-08-21T09:52:52;11.05;;;2.17;;
25707;SDS011;13567;61.652;17.100;2022-08-21T09:55:33;9.13;;;2.03;;
25707;SDS011;13567;61.652;17.100;2022-08-21T09:58:30;8.88;;;1.88;;
25707;SDS011;13567;61.652;17.100;2022-08-21T10:01:01;7.38;;;1.80;;
25707;SDS011;13567;61.652;17.100;2022-08-21T10:03:29;8.40;;;2.00;;
25707;SDS011;13567;61.652;17.100;2022-08-21T10:05:58;9.43;;;2.30;;
25707;SDS011;13567;61.652;17.100;2022-08-21T10:08:29;10.35;;;2.00;;
25707;SDS011;13567;61.652;17.100;2022-08-21T10:11:04;7.05;;;1.98;;
25707;SDS011;13567;61.652;17.100;2022-08-21T10:19:43;10.10;;;1.90;;
25707;SDS011;13567;61.652;17.100;2022-08-21T10:25:14;12.27;;;2.33;;
25707;SDS011;13567;61.652;17.100;2022-08-21T10:27:53;8.50;;;2.13;;
25707;SDS011;13567;61.652;17.100;2022-08-21T10:30:53;7.30;;;2.33;;
25707;SDS011;13567;61.652;17.100;2022-08-21T10:36:37;8.65;;;2.60;;
25707;SDS011;13567;61.652;17.100;2022-08-21T10:39:31;11.48;;;3.72;;
25707;SDS011;13567;61.652;17.100;2022-08-21T10:45:02;12.55;;;2.38;;
25707;SDS011;13567;61.652;17.100;2022-08-21T10:47:50;8.43;;;1.90;;
25707;SDS011;13567;61.652;17.100;2022-08-21T10:53:11;13.00;;;3.15;;
25707;SDS011;13567;61.652;17.100;2022-08-21T10:55:43;11.57;;;2.60;;
25707;SDS011;13567;61.652;17.100;2022-08-21T10:58:19;8.55;;;2.17;;
25707;SDS011;13567;61.652;17.100;2022-08-21T11:00:58;11.98;;;2.00;;
25707;SDS011;13567;61.652;17.100;2022-08-21T11:03:44;9.95;;;2.15;;
25707;SDS011;13567;61.652;17.100;2022-08-21T11:06:21;11.02;;;2.38;;
25707;SDS011;13567;61.652;17.100;2022-08-21T11:08:55;11.15;;;2.30;;
25707;SDS011;13567;61.652;17.100;2022-08-21T11:11:27;5.70;;;1.77;;
25707;SDS011;13567;61.652;17.100;2022-08-21T11:14:11;9.80;;;2.22;;
25707;SDS011;13567;61.652;17.100;2022-08-21T11:16:59;9.63;;;2.30;;
25707;SDS011;13567;61.652;17.100;2022-08-21T11:22:25;10.43;;;2.30;;
25707;SDS011;13567;61.652;17.100;2022-08-21T11:25:04;10.10;;;2.00;;
25707;SDS011;13567;61.652;17.100;2022-08-21T11:27:52;8.13;;;1.77;;
25707;SDS011;13567;61.652;17.100;2022-08-21T11:30:29;8.30;;;2.03;;
25707;SDS011;13567;61.652;17.100;2022-08-21T11:33:48;16.85;;;2.53;;
25707;SDS011;13567;61.652;17.100;2022-08-21T11:36:11;7.10;;;2.10;;
25707;SDS011;13567;61.652;17.100;2022-08-21T11:39:02;6.93;;;1.92;;
25707;SDS011;13567;61.652;17.100;2022-08-21T11:41:40;10.70;;;3.00;;
25707;SDS011;13567;61.652;17.100;2022-08-21T11:45:17;8.80;;;2.42;;
25707;SDS011;13567;61.652;17.100;2022-08-21T11:47:14;9.63;;;3.13;;
25707;SDS011;13567;61.652;17.100;2022-08-21T11:50:13;12.25;;;3.63;;
25707;SDS011;13567;61.652;17.100;2022-08-21T11:55:38;9.45;;;2.78;;
25707;SDS011;13567;61.652;17.100;2022-08-21T12:00:41;10.57;;;3.05;;
25707;SDS011;13567;61.652;17.100;2022-08-21T12:03:16;10.15;;;2.90;;
25707;SDS011;13567;61.652;17.100;2022-08-21T12:05:54;10.45;;;2.40;;
25707;SDS011;13567;61.652;17.100;2022-08-21T12:08:28;11.05;;;2.78;;
25707;SDS011;13567;61.652;17.100;2022-08-21T12:11:04;9.52;;;1.92;;
25707;SDS011;13567;61.652;17.100;2022-08-21T12:13:33;6.18;;;1.75;;
25707;SDS011;13567;61.652;17.100;2022-08-21T12:16:28;9.88;;;2.05;;
25707;SDS011;13567;61.652;17.100;2022-08-21T12:19:09;9.30;;;1.85;;
25707;SDS011;13567;61.652;17.100;2022-08-21T12:21:50;7.55;;;2.03;;
25707;SDS011;13567;61.652;17.100;2022-08-21T12:24:37;9.30;;;1.92;;
25707;SDS011;13567;61.652;17.100;2022-08-21T12:27:28;9.90;;;2.22;;
25707;SDS011;13567;61.652;17.100;2022-08-21T12:30:02;6.50;;;1.73;;
25707;SDS011;13567;61.652;17.100;2022-08-21T12:32:46;8.35;;;2.03;;
25707;SDS011;13567;61.652;17.100;2022-08-21T12:35:26;7.22;;;1.50;;
25707;SDS011;13567;61.652;17.100;2022-08-21T12:38:14;8.98;;;2.00;;
25707;SDS011;13567;61.652;17.100;2022-08-21T12:41:03;7.63;;;1.67;;
25707;SDS011;13567;61.652;17.100;2022-08-21T12:43:43;7.35;;;1.80;;
25707;SDS011;13567;61.652;17.100;2022-08-21T12:46:16;7.10;;;1.80;;
25707;SDS011;13567;61.652;17.100;2022-08-21T12:48:51;6.47;;;1.58;;
25707;SDS011;13567;61.652;17.100;2022-08-21T12:51:27;7.20;;;1.77;;
25707;SDS011;13567;61.652;17.100;2022-08-21T12:53:59;8.95;;;1.90;;
25707;SDS011;13567;61.652;17.100;2022-08-21T12:56:28;8.98;;;2.00;;
25707;SDS011;13567;61.652;17.100;2022-08-21T12:59:01;8.52;;;2.72;;
25707;SDS011;13567;61.652;17.100;2022-08-21T13:01:32;6.30;;;1.80;;
25707;SDS011;13567;61.652;17.100;2022-08-21T13:04:08;10.82;;;3.90;;
25707;SDS011;13567;61.652;17.100;2022-08-21T13:06:40;15.45;;;8.63;;
25707;SDS011;13567;61.652;17.100;2022-08-21T13:09:16;12.82;;;6.00;;
25707;SDS011;13567;61.652;17.100;2022-08-21T13:11:46;7.60;;;2.38;;
25707;SDS011;13567;61.652;17.100;2022-08-21T13:17:10;12.88;;;3.47;;
25707;SDS011;13567;61.652;17.100;2022-08-21T13:19:59;12.35;;;3.38;;
25707;SDS011;13567;61.652;17.100;2022-08-21T13:22:39;12.20;;;3.47;;
25707;SDS011;13567;61.652;17.100;2022-08-21T13:25:12;12.55;;;4.53;;
25707;SDS011;13567;61.652;17.100;2022-08-21T13:27:42;10.10;;;4.00;;
25707;SDS011;13567;61.652;17.100;2022-08-21T13:30:17;9.43;;;1.88;;
25707;SDS011;13567;61.652;17.100;2022-08-21T13:32:51;6.90;;;1.65;;
25707;SDS011;13567;61.652;17.100;2022-08-21T13:35:34;6.50;;;2.10;;
25707;SDS011;13567;61.652;17.100;2022-08-21T13:38:12;8.57;;;3.22;;
25707;SDS011;13567;61.652;17.100;2022-08-21T13:40:44;10.48;;;3.90;;
25707;SDS011;13567;61.652;17.100;2022-08-21T13:43:20;8.77;;;2.75;;
25707;SDS011;13567;61.652;17.100;2022-08-21T13:45:53;8.82;;;2.17;;
25707;SDS011;13567;61.652;17.100;2022-08-21T13:48:22;11.18;;;4.47;;
25707;SDS011;13567;61.652;17.100;2022-08-21T13:50:59;9.38;;;2.17;;
25707;SDS011;13567;61.652;17.100;2022-08-21T13:53:31;6.97;;;1.85;;
25707;SDS011;13567;61.652;17.100;2022-08-21T13:55:59;8.05;;;2.10;;
25707;SDS011;13567;61.652;17.100;2022-08-21T13:58:30;6.13;;;1.90;;
25707;SDS011;13567;61.652;17.100;2022-08-21T14:01:17;10.90;;;2.53;;
25707;SDS011;13567;61.652;17.100;2022-08-21T14:03:56;7.43;;;1.80;;
25707;SDS011;13567;61.652;17.100;2022-08-21T14:06:47;14.30;;;4.90;;
25707;SDS011;13567;61.652;17.100;2022-08-21T14:11:48;10.10;;;4.53;;
25707;SDS011;13567;61.652;17.100;2022-08-21T14:14:19;7.82;;;2.75;;
25707;SDS011;13567;61.652;17.100;2022-08-21T14:17:00;9.85;;;2.95;;
25707;SDS011;13567;61.652;17.100;2022-08-21T14:19:49;7.82;;;1.80;;
25707;SDS011;13567;61.652;17.100;2022-08-21T14:25:05;6.93;;;2.65;;
25707;SDS011;13567;61.652;17.100;2022-08-21T14:28:07;7.93;;;2.38;;
25707;SDS011;13567;61.652;17.100;2022-08-21T14:30:36;7.35;;;1.80;;
25707;SDS011;13567;61.652;17.100;2022-08-21T14:33:09;10.07;;;3.08;;
25707;SDS011;13567;61.652;17.100;2022-08-21T14:35:38;7.05;;;1.52;;
25707;SDS011;13567;61.652;17.100;2022-08-21T14:38:13;6.18;;;1.63;;
25707;SDS011;13567;61.652;17.100;2022-08-21T14:40:42;4.97;;;1.52;;
25707;SDS011;13567;61.652;17.100;2022-08-21T14:43:11;9.98;;;1.90;;
25707;SDS011;13567;61.652;17.100;2022-08-21T14:45:38;5.32;;;1.52;;
25707;SDS011;13567;61.652;17.100;2022-08-21T14:48:07;7.10;;;1.83;;
25707;SDS011;13567;61.652;17.100;2022-08-21T14:50:34;10.60;;;1.80;;
25707;SDS011;13567;61.652;17.100;2022-08-21T14:53:03;7.18;;;1.63;;
25707;SDS011;13567;61.652;17.100;2022-08-21T14:55:37;6.97;;;1.80;;
25707;SDS011;13567;61.652;17.100;2022-08-21T14:58:23;8.68;;;1.38;;
25707;SDS011;13567;61.652;17.100;2022-08-21T15:00:51;5.78;;;1.20;;
25707;SDS011;13567;61.652;17.100;2022-08-21T15:03:20;7.95;;;1.33;;
25707;SDS011;13567;61.652;17.100;2022-08-21T15:05:50;5.78;;;1.40;;
25707;SDS011;13567;61.652;17.100;2022-08-21T15:08:18;4.60;;;1.20;;
25707;SDS011;13567;61.652;17.100;2022-08-21T15:10:45;4.32;;;1.27;;
25707;SDS011;13567;61.652;17.100;2022-08-21T15:13:32;4.28;;;1.30;;
25707;SDS011;13567;61.652;17.100;2022-08-21T15:16:00;6.07;;;1.50;;
25707;SDS011;13567;61.652;17.100;2022-08-21T15:18:30;6.82;;;1.20;;
25707;SDS011;13567;61.652;17.100;2022-08-21T15:20:57;3.47;;;1.05;;
25707;SDS011;13567;61.652;17.100;2022-08-21T15:23:24;2.50;;;0.90;;
25707;SDS011;13567;61.652;17.100;2022-08-21T15:25:52;3.88;;;1.20;;
25707;SDS011;13567;61.652;17.100;2022-08-21T15:28:19;5.38;;;1.17;;
25707;SDS011;13567;61.652;17.100;2022-08-21T15:30:48;5.25;;;1.05;;
25707;SDS011;13567;61.652;17.100;2022-08-21T15:33:16;6.22;;;1.40;;
25707;SDS011;13567;61.652;17.100;2022-08-21T15:35:44;4.68;;;1.27;;
25707;SDS011;13567;61.652;17.100;2022-08-21T15:38:12;7.82;;;1.40;;
25707;SDS011;13567;61.652;17.100;2022-08-21T15:40:40;7.57;;;1.50;;
25707;SDS011;13567;61.652;17.100;2022-08-21T15:45:57;4.80;;;1.33;;